Fort Worden, Washington
Current Conditions -  °F | °C
As of 1:56 PM on Thursday 27 Nov 2014 (Local Time) from KNUW Reporting Station
Few Clouds Few Clouds  
Wind Chill: 60°   Ceiling: Unl
Heat Index: 60°   Visibility: 10mi
Dew Point: 51°   Wind: 17mph
Humidity: 72%   Direction: 160°SSE
Pressure: 29.71"   Gusts: NA
Location:  48.026°N, 122.859°W
Report Text: KNUW 272156Z AUTO 16015KT 10SM FEW019 16/11 A2971 RMK AO2 SLP064 T01560106 $
Loading
Personal Weather Stations






























Interactive Weather Map New forecast layout! Learn more

10-Day Weather Forecast

Advertisements
Track Severe Weather on mobile